sensor_id;sensor_type;location;lat;lon;timestamp;P1;durP1;ratioP1;P2;durP2;ratioP2
4365;SDS011;2196;47.422;9.656;2023-05-29T00:00:46;5.57;;;4.60;;
4365;SDS011;2196;47.422;9.656;2023-05-29T00:03:13;4.90;;;4.40;;
4365;SDS011;2196;47.422;9.656;2023-05-29T00:05:40;7.60;;;4.97;;
4365;SDS011;2196;47.422;9.656;2023-05-29T00:08:08;7.37;;;5.30;;
4365;SDS011;2196;47.422;9.656;2023-05-29T00:10:35;6.57;;;5.57;;
4365;SDS011;2196;47.422;9.656;2023-05-29T00:13:03;10.03;;;5.67;;
4365;SDS011;2196;47.422;9.656;2023-05-29T00:15:29;7.40;;;5.70;;
4365;SDS011;2196;47.422;9.656;2023-05-29T00:17:56;5.93;;;5.30;;
4365;SDS011;2196;47.422;9.656;2023-05-29T00:20:23;5.70;;;5.30;;
4365;SDS011;2196;47.422;9.656;2023-05-29T00:22:50;5.63;;;5.10;;
4365;SDS011;2196;47.422;9.656;2023-05-29T00:25:18;7.40;;;5.07;;
4365;SDS011;2196;47.422;9.656;2023-05-29T00:27:45;6.53;;;4.73;;
4365;SDS011;2196;47.422;9.656;2023-05-29T00:30:12;5.00;;;4.60;;
4365;SDS011;2196;47.422;9.656;2023-05-29T00:32:39;6.80;;;5.00;;
4365;SDS011;2196;47.422;9.656;2023-05-29T00:35:07;7.23;;;5.90;;
4365;SDS011;2196;47.422;9.656;2023-05-29T00:37:35;6.57;;;4.90;;
4365;SDS011;2196;47.422;9.656;2023-05-29T00:40:02;6.20;;;5.60;;
4365;SDS011;2196;47.422;9.656;2023-05-29T00:42:31;5.03;;;4.63;;
4365;SDS011;2196;47.422;9.656;2023-05-29T00:44:58;7.10;;;5.67;;
4365;SDS011;2196;47.422;9.656;2023-05-29T00:47:25;10.33;;;5.23;;
4365;SDS011;2196;47.422;9.656;2023-05-29T00:49:52;9.63;;;5.40;;
4365;SDS011;2196;47.422;9.656;2023-05-29T00:52:21;7.23;;;5.40;;
4365;SDS011;2196;47.422;9.656;2023-05-29T00:54:49;8.83;;;6.17;;
4365;SDS011;2196;47.422;9.656;2023-05-29T00:57:16;7.00;;;5.20;;
4365;SDS011;2196;47.422;9.656;2023-05-29T00:59:45;6.97;;;5.53;;
4365;SDS011;2196;47.422;9.656;2023-05-29T01:02:13;6.40;;;5.90;;
4365;SDS011;2196;47.422;9.656;2023-05-29T01:04:43;10.07;;;4.97;;
4365;SDS011;2196;47.422;9.656;2023-05-29T01:07:11;6.33;;;5.13;;
4365;SDS011;2196;47.422;9.656;2023-05-29T01:09:39;7.57;;;5.20;;
4365;SDS011;2196;47.422;9.656;2023-05-29T01:12:08;6.97;;;6.10;;
4365;SDS011;2196;47.422;9.656;2023-05-29T01:14:51;6.83;;;5.47;;
4365;SDS011;2196;47.422;9.656;2023-05-29T01:17:31;5.77;;;5.17;;
4365;SDS011;2196;47.422;9.656;2023-05-29T01:20:09;7.60;;;5.63;;
4365;SDS011;2196;47.422;9.656;2023-05-29T01:22:53;6.50;;;5.97;;
4365;SDS011;2196;47.422;9.656;2023-05-29T01:25:35;6.57;;;5.33;;
4365;SDS011;2196;47.422;9.656;2023-05-29T01:28:19;6.07;;;5.23;;
4365;SDS011;2196;47.422;9.656;2023-05-29T01:30:48;7.50;;;6.50;;
4365;SDS011;2196;47.422;9.656;2023-05-29T01:33:17;7.17;;;6.10;;
4365;SDS011;2196;47.422;9.656;2023-05-29T01:35:44;6.67;;;5.37;;
4365;SDS011;2196;47.422;9.656;2023-05-29T01:38:11;7.67;;;5.37;;
4365;SDS011;2196;47.422;9.656;2023-05-29T01:40:38;5.57;;;5.07;;
4365;SDS011;2196;47.422;9.656;2023-05-29T01:43:05;10.27;;;5.67;;
4365;SDS011;2196;47.422;9.656;2023-05-29T01:45:34;6.43;;;5.83;;
4365;SDS011;2196;47.422;9.656;2023-05-29T01:48:02;7.23;;;5.47;;
4365;SDS011;2196;47.422;9.656;2023-05-29T01:50:30;7.53;;;6.23;;
4365;SDS011;2196;47.422;9.656;2023-05-29T01:52:57;7.40;;;5.73;;
4365;SDS011;2196;47.422;9.656;2023-05-29T01:55:24;7.90;;;5.40;;
4365;SDS011;2196;47.422;9.656;2023-05-29T01:57:51;8.07;;;6.20;;
4365;SDS011;2196;47.422;9.656;2023-05-29T02:00:20;10.83;;;6.63;;
4365;SDS011;2196;47.422;9.656;2023-05-29T02:02:49;7.83;;;7.13;;
4365;SDS011;2196;47.422;9.656;2023-05-29T02:05:16;11.40;;;6.43;;
4365;SDS011;2196;47.422;9.656;2023-05-29T02:07:43;6.83;;;6.23;;
4365;SDS011;2196;47.422;9.656;2023-05-29T02:10:11;8.43;;;5.97;;
4365;SDS011;2196;47.422;9.656;2023-05-29T02:12:38;6.10;;;5.60;;
4365;SDS011;2196;47.422;9.656;2023-05-29T02:15:05;8.77;;;5.90;;
4365;SDS011;2196;47.422;9.656;2023-05-29T02:17:33;8.70;;;5.50;;
4365;SDS011;2196;47.422;9.656;2023-05-29T02:20:02;8.67;;;6.77;;
4365;SDS011;2196;47.422;9.656;2023-05-29T02:22:29;8.83;;;7.47;;
4365;SDS011;2196;47.422;9.656;2023-05-29T02:24:56;7.87;;;7.00;;
4365;SDS011;2196;47.422;9.656;2023-05-29T02:27:23;8.77;;;7.33;;
4365;SDS011;2196;47.422;9.656;2023-05-29T02:29:50;8.77;;;7.83;;
4365;SDS011;2196;47.422;9.656;2023-05-29T02:32:17;6.70;;;6.10;;
4365;SDS011;2196;47.422;9.656;2023-05-29T02:34:44;9.47;;;7.27;;
4365;SDS011;2196;47.422;9.656;2023-05-29T02:37:12;9.30;;;6.90;;
4365;SDS011;2196;47.422;9.656;2023-05-29T02:39:39;11.13;;;5.90;;
4365;SDS011;2196;47.422;9.656;2023-05-29T02:42:06;9.20;;;6.80;;
4365;SDS011;2196;47.422;9.656;2023-05-29T02:44:33;12.40;;;7.03;;
4365;SDS011;2196;47.422;9.656;2023-05-29T02:47:00;7.37;;;5.70;;
4365;SDS011;2196;47.422;9.656;2023-05-29T02:49:27;9.23;;;6.97;;
4365;SDS011;2196;47.422;9.656;2023-05-29T02:51:54;10.60;;;7.60;;
4365;SDS011;2196;47.422;9.656;2023-05-29T02:54:23;7.77;;;6.70;;
4365;SDS011;2196;47.422;9.656;2023-05-29T02:56:50;9.00;;;6.23;;
4365;SDS011;2196;47.422;9.656;2023-05-29T02:59:17;9.17;;;6.70;;
4365;SDS011;2196;47.422;9.656;2023-05-29T03:01:44;11.57;;;8.57;;
4365;SDS011;2196;47.422;9.656;2023-05-29T03:04:12;8.20;;;6.23;;
4365;SDS011;2196;47.422;9.656;2023-05-29T03:06:39;9.77;;;7.33;;
4365;SDS011;2196;47.422;9.656;2023-05-29T03:09:06;10.87;;;7.40;;
4365;SDS011;2196;47.422;9.656;2023-05-29T03:11:35;9.43;;;5.90;;
4365;SDS011;2196;47.422;9.656;2023-05-29T03:14:03;8.53;;;6.77;;
4365;SDS011;2196;47.422;9.656;2023-05-29T03:16:29;7.87;;;6.83;;
4365;SDS011;2196;47.422;9.656;2023-05-29T03:18:56;7.07;;;6.47;;
4365;SDS011;2196;47.422;9.656;2023-05-29T03:21:23;9.00;;;7.40;;
4365;SDS011;2196;47.422;9.656;2023-05-29T03:23:51;7.03;;;6.30;;
4365;SDS011;2196;47.422;9.656;2023-05-29T03:26:17;10.63;;;7.60;;
4365;SDS011;2196;47.422;9.656;2023-05-29T03:28:46;11.83;;;7.73;;
4365;SDS011;2196;47.422;9.656;2023-05-29T03:31:13;8.17;;;6.50;;
4365;SDS011;2196;47.422;9.656;2023-05-29T03:33:40;6.87;;;6.27;;
4365;SDS011;2196;47.422;9.656;2023-05-29T03:36:07;7.93;;;6.43;;
4365;SDS011;2196;47.422;9.656;2023-05-29T03:38:35;8.30;;;7.47;;
4365;SDS011;2196;47.422;9.656;2023-05-29T03:41:03;9.40;;;7.57;;
4365;SDS011;2196;47.422;9.656;2023-05-29T03:43:30;8.27;;;7.47;;
4365;SDS011;2196;47.422;9.656;2023-05-29T03:45:58;10.43;;;7.13;;
4365;SDS011;2196;47.422;9.656;2023-05-29T03:48:25;6.20;;;5.67;;
4365;SDS011;2196;47.422;9.656;2023-05-29T03:50:52;9.67;;;7.40;;
4365;SDS011;2196;47.422;9.656;2023-05-29T03:53:19;8.50;;;7.70;;
4365;SDS011;2196;47.422;9.656;2023-05-29T03:55:45;9.00;;;7.10;;
4365;SDS011;2196;47.422;9.656;2023-05-29T03:58:12;8.77;;;6.03;;
4365;SDS011;2196;47.422;9.656;2023-05-29T04:00:40;8.93;;;6.87;;
4365;SDS011;2196;47.422;9.656;2023-05-29T04:03:09;7.37;;;6.47;;
4365;SDS011;2196;47.422;9.656;2023-05-29T04:05:36;6.10;;;5.50;;
4365;SDS011;2196;47.422;9.656;2023-05-29T04:08:03;9.13;;;7.50;;
4365;SDS011;2196;47.422;9.656;2023-05-29T04:10:30;7.30;;;6.60;;
4365;SDS011;2196;47.422;9.656;2023-05-29T04:12:58;7.60;;;6.73;;
4365;SDS011;2196;47.422;9.656;2023-05-29T04:15:26;8.80;;;7.17;;
4365;SDS011;2196;47.422;9.656;2023-05-29T04:17:53;11.43;;;6.57;;
4365;SDS011;2196;47.422;9.656;2023-05-29T04:20:21;6.33;;;5.73;;
4365;SDS011;2196;47.422;9.656;2023-05-29T04:22:49;8.97;;;5.73;;
4365;SDS011;2196;47.422;9.656;2023-05-29T04:25:16;7.17;;;5.43;;
4365;SDS011;2196;47.422;9.656;2023-05-29T04:27:43;9.50;;;4.90;;
4365;SDS011;2196;47.422;9.656;2023-05-29T04:30:14;5.50;;;4.37;;
4365;SDS011;2196;47.422;9.656;2023-05-29T04:32:41;5.17;;;4.73;;
4365;SDS011;2196;47.422;9.656;2023-05-29T04:35:09;5.63;;;4.17;;
4365;SDS011;2196;47.422;9.656;2023-05-29T04:37:37;5.27;;;4.77;;
4365;SDS011;2196;47.422;9.656;2023-05-29T04:40:09;7.83;;;4.93;;
4365;SDS011;2196;47.422;9.656;2023-05-29T04:42:37;7.87;;;4.57;;
4365;SDS011;2196;47.422;9.656;2023-05-29T04:45:05;4.90;;;4.43;;
4365;SDS011;2196;47.422;9.656;2023-05-29T04:47:35;8.17;;;4.67;;
4365;SDS011;2196;47.422;9.656;2023-05-29T04:50:08;7.10;;;5.03;;
4365;SDS011;2196;47.422;9.656;2023-05-29T04:52:37;6.27;;;5.13;;
4365;SDS011;2196;47.422;9.656;2023-05-29T04:55:05;7.73;;;5.60;;
4365;SDS011;2196;47.422;9.656;2023-05-29T04:57:32;5.10;;;4.13;;
4365;SDS011;2196;47.422;9.656;2023-05-29T04:59:59;7.10;;;4.83;;
4365;SDS011;2196;47.422;9.656;2023-05-29T05:02:30;7.43;;;5.83;;
4365;SDS011;2196;47.422;9.656;2023-05-29T05:04:57;6.33;;;5.17;;
4365;SDS011;2196;47.422;9.656;2023-05-29T05:07:24;5.70;;;4.83;;
4365;SDS011;2196;47.422;9.656;2023-05-29T05:09:52;5.50;;;4.97;;
4365;SDS011;2196;47.422;9.656;2023-05-29T05:12:19;5.83;;;5.30;;
4365;SDS011;2196;47.422;9.656;2023-05-29T05:14:46;5.67;;;5.17;;
4365;SDS011;2196;47.422;9.656;2023-05-29T05:17:13;6.90;;;5.27;;
4365;SDS011;2196;47.422;9.656;2023-05-29T05:19:41;5.60;;;5.20;;
4365;SDS011;2196;47.422;9.656;2023-05-29T05:22:07;6.00;;;4.83;;
4365;SDS011;2196;47.422;9.656;2023-05-29T05:24:37;17.40;;;5.47;;
4365;SDS011;2196;47.422;9.656;2023-05-29T05:27:09;6.97;;;5.83;;
4365;SDS011;2196;47.422;9.656;2023-05-29T05:29:35;5.77;;;5.30;;
4365;SDS011;2196;47.422;9.656;2023-05-29T05:32:03;5.57;;;4.60;;
4365;SDS011;2196;47.422;9.656;2023-05-29T05:34:34;6.53;;;5.40;;
4365;SDS011;2196;47.422;9.656;2023-05-29T05:37:01;6.83;;;4.37;;
4365;SDS011;2196;47.422;9.656;2023-05-29T05:39:29;6.37;;;5.77;;
4365;SDS011;2196;47.422;9.656;2023-05-29T05:41:56;5.73;;;5.20;;
4365;SDS011;2196;47.422;9.656;2023-05-29T05:44:25;5.90;;;5.37;;
4365;SDS011;2196;47.422;9.656;2023-05-29T05:46:52;6.60;;;5.93;;
4365;SDS011;2196;47.422;9.656;2023-05-29T05:49:19;5.90;;;5.50;;
4365;SDS011;2196;47.422;9.656;2023-05-29T05:51:46;5.57;;;5.20;;
4365;SDS011;2196;47.422;9.656;2023-05-29T05:54:14;6.20;;;5.17;;
4365;SDS011;2196;47.422;9.656;2023-05-29T05:56:41;5.57;;;4.97;;
4365;SDS011;2196;47.422;9.656;2023-05-29T05:59:09;5.80;;;4.63;;
4365;SDS011;2196;47.422;9.656;2023-05-29T06:01:38;5.33;;;4.60;;
4365;SDS011;2196;47.422;9.656;2023-05-29T06:04:06;4.80;;;4.50;;
4365;SDS011;2196;47.422;9.656;2023-05-29T06:06:33;5.03;;;4.63;;
4365;SDS011;2196;47.422;9.656;2023-05-29T06:09:01;4.87;;;4.47;;
4365;SDS011;2196;47.422;9.656;2023-05-29T06:11:29;7.07;;;5.47;;
4365;SDS011;2196;47.422;9.656;2023-05-29T06:13:56;4.50;;;4.10;;
4365;SDS011;2196;47.422;9.656;2023-05-29T06:16:26;5.10;;;4.70;;
4365;SDS011;2196;47.422;9.656;2023-05-29T06:18:55;8.03;;;5.17;;
4365;SDS011;2196;47.422;9.656;2023-05-29T06:21:22;4.13;;;3.87;;
4365;SDS011;2196;47.422;9.656;2023-05-29T06:23:49;5.20;;;4.80;;
4365;SDS011;2196;47.422;9.656;2023-05-29T06:26:16;10.10;;;4.40;;
4365;SDS011;2196;47.422;9.656;2023-05-29T06:28:43;5.70;;;5.20;;
4365;SDS011;2196;47.422;9.656;2023-05-29T06:31:10;5.07;;;4.67;;
4365;SDS011;2196;47.422;9.656;2023-05-29T06:33:37;7.93;;;4.80;;
4365;SDS011;2196;47.422;9.656;2023-05-29T06:36:06;5.73;;;5.27;;
4365;SDS011;2196;47.422;9.656;2023-05-29T06:38:33;6.00;;;5.30;;
4365;SDS011;2196;47.422;9.656;2023-05-29T06:41:00;5.53;;;5.03;;
4365;SDS011;2196;47.422;9.656;2023-05-29T06:43:27;5.37;;;4.43;;
4365;SDS011;2196;47.422;9.656;2023-05-29T06:45:55;14.30;;;4.83;;
4365;SDS011;2196;47.422;9.656;2023-05-29T06:48:21;5.27;;;4.77;;
4365;SDS011;2196;47.422;9.656;2023-05-29T06:50:48;7.30;;;5.33;;
4365;SDS011;2196;47.422;9.656;2023-05-29T06:53:17;6.13;;;4.70;;
4365;SDS011;2196;47.422;9.656;2023-05-29T06:55:44;6.22;;;5.07;;
4365;SDS011;2196;47.422;9.656;2023-05-29T06:58:11;6.33;;;5.73;;
4365;SDS011;2196;47.422;9.656;2023-05-29T07:00:38;7.25;;;5.07;;
4365;SDS011;2196;47.422;9.656;2023-05-29T07:03:05;6.88;;;6.28;;
4365;SDS011;2196;47.422;9.656;2023-05-29T07:05:32;7.67;;;6.80;;
4365;SDS011;2196;47.422;9.656;2023-05-29T07:07:58;6.00;;;5.37;;
4365;SDS011;2196;47.422;9.656;2023-05-29T07:10:27;6.57;;;5.33;;
4365;SDS011;2196;47.422;9.656;2023-05-29T07:12:54;6.57;;;5.30;;
4365;SDS011;2196;47.422;9.656;2023-05-29T07:15:21;6.13;;;5.40;;
4365;SDS011;2196;47.422;9.656;2023-05-29T07:17:48;6.60;;;4.93;;
4365;SDS011;2196;47.422;9.656;2023-05-29T07:20:14;6.07;;;5.50;;
4365;SDS011;2196;47.422;9.656;2023-05-29T07:22:44;7.70;;;5.10;;
4365;SDS011;2196;47.422;9.656;2023-05-29T07:25:11;6.13;;;5.53;;
4365;SDS011;2196;47.422;9.656;2023-05-29T07:27:39;6.30;;;5.47;;
4365;SDS011;2196;47.422;9.656;2023-05-29T07:30:07;8.37;;;5.97;;
4365;SDS011;2196;47.422;9.656;2023-05-29T07:32:35;7.97;;;5.67;;
4365;SDS011;2196;47.422;9.656;2023-05-29T07:35:02;8.80;;;5.57;;
4365;SDS011;2196;47.422;9.656;2023-05-29T07:37:29;7.13;;;6.43;;
4365;SDS011;2196;47.422;9.656;2023-05-29T07:39:56;6.43;;;5.50;;
4365;SDS011;2196;47.422;9.656;2023-05-29T07:42:23;9.07;;;5.60;;
4365;SDS011;2196;47.422;9.656;2023-05-29T07:44:52;8.10;;;5.23;;
4365;SDS011;2196;47.422;9.656;2023-05-29T07:47:19;5.63;;;5.13;;
4365;SDS011;2196;47.422;9.656;2023-05-29T07:49:46;10.53;;;6.03;;
4365;SDS011;2196;47.422;9.656;2023-05-29T07:52:13;5.90;;;5.50;;
4365;SDS011;2196;47.422;9.656;2023-05-29T07:54:40;7.87;;;6.43;;
4365;SDS011;2196;47.422;9.656;2023-05-29T07:57:08;6.07;;;5.57;;
4365;SDS011;2196;47.422;9.656;2023-05-29T07:59:35;6.73;;;6.23;;
4365;SDS011;2196;47.422;9.656;2023-05-29T08:02:06;6.80;;;6.20;;
4365;SDS011;2196;47.422;9.656;2023-05-29T08:04:34;6.10;;;5.60;;
4365;SDS011;2196;47.422;9.656;2023-05-29T08:07:02;6.95;;;6.05;;
4365;SDS011;2196;47.422;9.656;2023-05-29T08:09:32;6.70;;;5.25;;
4365;SDS011;2196;47.422;9.656;2023-05-29T08:11:59;9.43;;;6.70;;
4365;SDS011;2196;47.422;9.656;2023-05-29T08:14:27;7.55;;;6.72;;
4365;SDS011;2196;47.422;9.656;2023-05-29T08:16:54;7.57;;;6.38;;
4365;SDS011;2196;47.422;9.656;2023-05-29T08:19:22;7.07;;;6.38;;
4365;SDS011;2196;47.422;9.656;2023-05-29T08:21:49;6.90;;;5.93;;
4365;SDS011;2196;47.422;9.656;2023-05-29T08:24:17;7.32;;;6.70;;
4365;SDS011;2196;47.422;9.656;2023-05-29T08:26:45;7.72;;;5.55;;
4365;SDS011;2196;47.422;9.656;2023-05-29T08:29:12;6.20;;;5.60;;
4365;SDS011;2196;47.422;9.656;2023-05-29T08:31:39;7.07;;;6.40;;
4365;SDS011;2196;47.422;9.656;2023-05-29T08:34:06;5.88;;;5.20;;
4365;SDS011;2196;47.422;9.656;2023-05-29T08:36:36;6.40;;;5.80;;
4365;SDS011;2196;47.422;9.656;2023-05-29T08:39:06;9.18;;;6.18;;
4365;SDS011;2196;47.422;9.656;2023-05-29T08:41:35;6.63;;;6.05;;
4365;SDS011;2196;47.422;9.656;2023-05-29T08:44:09;6.88;;;6.20;;
4365;SDS011;2196;47.422;9.656;2023-05-29T08:46:40;5.90;;;5.13;;
4365;SDS011;2196;47.422;9.656;2023-05-29T08:49:08;6.40;;;4.82;;
4365;SDS011;2196;47.422;9.656;2023-05-29T08:51:40;6.15;;;5.75;;
4365;SDS011;2196;47.422;9.656;2023-05-29T08:54:08;6.25;;;5.65;;
4365;SDS011;2196;47.422;9.656;2023-05-29T08:56:36;6.10;;;5.65;;
4365;SDS011;2196;47.422;9.656;2023-05-29T08:59:03;6.15;;;4.97;;
4365;SDS011;2196;47.422;9.656;2023-05-29T09:01:31;5.20;;;4.80;;
4365;SDS011;2196;47.422;9.656;2023-05-29T09:03:59;6.88;;;5.75;;
4365;SDS011;2196;47.422;9.656;2023-05-29T09:06:27;6.95;;;5.43;;
4365;SDS011;2196;47.422;9.656;2023-05-29T09:08:56;6.28;;;5.70;;
4365;SDS011;2196;47.422;9.656;2023-05-29T09:11:23;6.18;;;5.57;;
4365;SDS011;2196;47.422;9.656;2023-05-29T09:13:51;8.32;;;5.95;;
4365;SDS011;2196;47.422;9.656;2023-05-29T09:16:18;5.20;;;4.70;;
4365;SDS011;2196;47.422;9.656;2023-05-29T09:18:45;6.30;;;5.55;;
4365;SDS011;2196;47.422;9.656;2023-05-29T09:21:24;5.50;;;5.00;;
4365;SDS011;2196;47.422;9.656;2023-05-29T09:23:53;8.35;;;5.40;;
4365;SDS011;2196;47.422;9.656;2023-05-29T09:26:28;5.95;;;5.45;;
4365;SDS011;2196;47.422;9.656;2023-05-29T09:28:55;8.98;;;5.03;;
4365;SDS011;2196;47.422;9.656;2023-05-29T09:31:23;6.63;;;5.80;;
4365;SDS011;2196;47.422;9.656;2023-05-29T09:33:50;5.85;;;5.00;;
4365;SDS011;2196;47.422;9.656;2023-05-29T09:36:20;8.30;;;5.13;;
4365;SDS011;2196;47.422;9.656;2023-05-29T09:38:48;5.93;;;5.10;;
4365;SDS011;2196;47.422;9.656;2023-05-29T09:41:21;7.18;;;5.43;;
4365;SDS011;2196;47.422;9.656;2023-05-29T09:43:49;5.80;;;5.32;;
4365;SDS011;2196;47.422;9.656;2023-05-29T09:46:18;7.20;;;6.13;;
4365;SDS011;2196;47.422;9.656;2023-05-29T09:48:45;5.53;;;4.65;;
4365;SDS011;2196;47.422;9.656;2023-05-29T09:51:21;5.55;;;5.05;;
4365;SDS011;2196;47.422;9.656;2023-05-29T09:53:49;8.77;;;5.07;;
4365;SDS011;2196;47.422;9.656;2023-05-29T09:56:18;7.65;;;6.32;;
4365;SDS011;2196;47.422;9.656;2023-05-29T09:58:51;6.95;;;6.07;;
4365;SDS011;2196;47.422;9.656;2023-05-29T10:01:22;5.22;;;4.75;;
4365;SDS011;2196;47.422;9.656;2023-05-29T10:03:50;6.20;;;5.40;;
4365;SDS011;2196;47.422;9.656;2023-05-29T10:06:18;7.93;;;5.25;;
4365;SDS011;2196;47.422;9.656;2023-05-29T10:08:47;7.15;;;5.10;;
4365;SDS011;2196;47.422;9.656;2023-05-29T10:11:20;5.35;;;4.90;;
4365;SDS011;2196;47.422;9.656;2023-05-29T10:13:52;6.72;;;5.75;;
4365;SDS011;2196;47.422;9.656;2023-05-29T10:16:23;5.28;;;4.80;;
4365;SDS011;2196;47.422;9.656;2023-05-29T10:18:53;5.38;;;4.90;;
4365;SDS011;2196;47.422;9.656;2023-05-29T10:21:22;6.43;;;4.75;;
4365;SDS011;2196;47.422;9.656;2023-05-29T10:23:51;5.35;;;4.97;;
4365;SDS011;2196;47.422;9.656;2023-05-29T10:26:19;5.90;;;5.22;;
4365;SDS011;2196;47.422;9.656;2023-05-29T10:28:50;5.18;;;4.68;;
4365;SDS011;2196;47.422;9.656;2023-05-29T10:31:22;5.10;;;4.57;;
4365;SDS011;2196;47.422;9.656;2023-05-29T10:33:58;5.78;;;5.25;;
4365;SDS011;2196;47.422;9.656;2023-05-29T10:36:35;6.30;;;5.38;;
4365;SDS011;2196;47.422;9.656;2023-05-29T10:39:09;5.00;;;4.53;;
4365;SDS011;2196;47.422;9.656;2023-05-29T10:41:37;6.05;;;5.25;;
4365;SDS011;2196;47.422;9.656;2023-05-29T10:47:09;7.35;;;5.78;;
4365;SDS011;2196;47.422;9.656;2023-05-29T10:49:37;5.40;;;4.90;;
4365;SDS011;2196;47.422;9.656;2023-05-29T10:52:06;6.40;;;5.82;;
4365;SDS011;2196;47.422;9.656;2023-05-29T10:57:22;5.40;;;5.00;;
4365;SDS011;2196;47.422;9.656;2023-05-29T10:59:58;7.78;;;5.45;;
4365;SDS011;2196;47.422;9.656;2023-05-29T11:02:31;8.68;;;5.03;;
4365;SDS011;2196;47.422;9.656;2023-05-29T11:05:05;4.47;;;4.07;;
4365;SDS011;2196;47.422;9.656;2023-05-29T11:07:50;4.70;;;4.32;;
4365;SDS011;2196;47.422;9.656;2023-05-29T11:13:10;4.47;;;4.25;;
4365;SDS011;2196;47.422;9.656;2023-05-29T11:15:49;5.78;;;5.38;;
4365;SDS011;2196;47.422;9.656;2023-05-29T11:18:32;5.00;;;4.60;;
4365;SDS011;2196;47.422;9.656;2023-05-29T11:21:05;5.10;;;4.80;;
4365;SDS011;2196;47.422;9.656;2023-05-29T11:23:41;4.68;;;4.25;;
4365;SDS011;2196;47.422;9.656;2023-05-29T11:26:09;4.85;;;4.35;;
4365;SDS011;2196;47.422;9.656;2023-05-29T11:28:37;4.97;;;4.10;;
4365;SDS011;2196;47.422;9.656;2023-05-29T11:31:06;5.72;;;4.20;;
4365;SDS011;2196;47.422;9.656;2023-05-29T11:33:38;4.72;;;4.32;;
4365;SDS011;2196;47.422;9.656;2023-05-29T11:36:08;4.53;;;4.28;;
4365;SDS011;2196;47.422;9.656;2023-05-29T11:38:35;5.07;;;4.68;;
4365;SDS011;2196;47.422;9.656;2023-05-29T11:41:03;4.88;;;4.35;;
4365;SDS011;2196;47.422;9.656;2023-05-29T11:43:30;4.60;;;4.30;;
4365;SDS011;2196;47.422;9.656;2023-05-29T11:45:58;5.13;;;4.70;;
4365;SDS011;2196;47.422;9.656;2023-05-29T11:48:25;4.72;;;4.30;;
4365;SDS011;2196;47.422;9.656;2023-05-29T11:50:54;4.40;;;4.10;;
4365;SDS011;2196;47.422;9.656;2023-05-29T11:53:22;6.10;;;5.00;;
4365;SDS011;2196;47.422;9.656;2023-05-29T11:55:49;5.40;;;4.57;;
4365;SDS011;2196;47.422;9.656;2023-05-29T11:58:16;5.13;;;4.65;;
4365;SDS011;2196;47.422;9.656;2023-05-29T12:00:43;4.97;;;4.65;;
4365;SDS011;2196;47.422;9.656;2023-05-29T12:03:12;4.38;;;3.97;;
4365;SDS011;2196;47.422;9.656;2023-05-29T12:05:45;5.37;;;4.87;;
4365;SDS011;2196;47.422;9.656;2023-05-29T12:08:15;5.40;;;4.97;;
4365;SDS011;2196;47.422;9.656;2023-05-29T12:10:48;4.50;;;4.03;;
4365;SDS011;2196;47.422;9.656;2023-05-29T12:13:18;4.70;;;4.25;;
4365;SDS011;2196;47.422;9.656;2023-05-29T12:15:45;5.33;;;4.47;;
4365;SDS011;2196;47.422;9.656;2023-05-29T12:18:13;4.72;;;4.32;;
4365;SDS011;2196;47.422;9.656;2023-05-29T12:20:41;3.87;;;3.57;;
4365;SDS011;2196;47.422;9.656;2023-05-29T12:23:08;5.10;;;3.97;;
4365;SDS011;2196;47.422;9.656;2023-05-29T12:25:38;4.25;;;3.95;;
4365;SDS011;2196;47.422;9.656;2023-05-29T12:28:05;5.18;;;4.68;;
4365;SDS011;2196;47.422;9.656;2023-05-29T12:30:36;4.07;;;3.77;;
4365;SDS011;2196;47.422;9.656;2023-05-29T12:33:06;4.95;;;4.43;;
4365;SDS011;2196;47.422;9.656;2023-05-29T12:35:33;3.60;;;3.30;;
4365;SDS011;2196;47.422;9.656;2023-05-29T12:38:00;4.05;;;3.70;;
4365;SDS011;2196;47.422;9.656;2023-05-29T12:40:29;4.05;;;3.75;;
4365;SDS011;2196;47.422;9.656;2023-05-29T12:43:00;4.35;;;3.92;;
4365;SDS011;2196;47.422;9.656;2023-05-29T12:45:30;3.97;;;3.67;;
4365;SDS011;2196;47.422;9.656;2023-05-29T12:47:58;4.63;;;4.15;;
4365;SDS011;2196;47.422;9.656;2023-05-29T12:50:28;4.22;;;3.85;;
4365;SDS011;2196;47.422;9.656;2023-05-29T12:52:59;4.23;;;3.93;;
4365;SDS011;2196;47.422;9.656;2023-05-29T12:55:28;3.83;;;3.30;;
4365;SDS011;2196;47.422;9.656;2023-05-29T12:57:59;5.57;;;5.03;;
4365;SDS011;2196;47.422;9.656;2023-05-29T13:00:27;8.02;;;4.07;;
4365;SDS011;2196;47.422;9.656;2023-05-29T13:02:55;4.75;;;4.15;;
4365;SDS011;2196;47.422;9.656;2023-05-29T13:05:23;5.63;;;4.15;;
4365;SDS011;2196;47.422;9.656;2023-05-29T13:07:51;3.42;;;3.22;;
4365;SDS011;2196;47.422;9.656;2023-05-29T13:10:18;4.25;;;3.90;;
4365;SDS011;2196;47.422;9.656;2023-05-29T13:12:47;4.82;;;4.15;;
4365;SDS011;2196;47.422;9.656;2023-05-29T13:15:20;4.93;;;4.32;;
4365;SDS011;2196;47.422;9.656;2023-05-29T13:17:48;5.15;;;4.65;;
4365;SDS011;2196;47.422;9.656;2023-05-29T13:20:15;6.57;;;5.00;;
4365;SDS011;2196;47.422;9.656;2023-05-29T13:22:43;7.55;;;5.03;;
4365;SDS011;2196;47.422;9.656;2023-05-29T13:25:12;5.25;;;4.47;;
4365;SDS011;2196;47.422;9.656;2023-05-29T13:27:40;6.90;;;4.25;;
4365;SDS011;2196;47.422;9.656;2023-05-29T13:30:09;4.82;;;4.35;;
4365;SDS011;2196;47.422;9.656;2023-05-29T13:32:39;5.75;;;5.00;;
4365;SDS011;2196;47.422;9.656;2023-05-29T13:35:06;5.20;;;4.80;;
4365;SDS011;2196;47.422;9.656;2023-05-29T13:37:35;4.80;;;4.33;;
4365;SDS011;2196;47.422;9.656;2023-05-29T13:40:02;4.40;;;4.10;;
4365;SDS011;2196;47.422;9.656;2023-05-29T13:42:30;4.53;;;4.10;;
4365;SDS011;2196;47.422;9.656;2023-05-29T13:44:57;4.67;;;4.37;;
4365;SDS011;2196;47.422;9.656;2023-05-29T13:47:24;4.33;;;4.03;;
4365;SDS011;2196;47.422;9.656;2023-05-29T13:49:55;5.50;;;4.30;;
4365;SDS011;2196;47.422;9.656;2023-05-29T13:52:22;3.87;;;3.57;;
4365;SDS011;2196;47.422;9.656;2023-05-29T13:54:49;5.93;;;5.43;;
4365;SDS011;2196;47.422;9.656;2023-05-29T13:57:16;4.72;;;4.38;;
4365;SDS011;2196;47.422;9.656;2023-05-29T13:59:43;5.40;;;4.40;;
4365;SDS011;2196;47.422;9.656;2023-05-29T14:02:10;6.35;;;5.55;;
4365;SDS011;2196;47.422;9.656;2023-05-29T14:04:39;4.30;;;4.00;;
4365;SDS011;2196;47.422;9.656;2023-05-29T14:07:09;8.10;;;4.40;;
4365;SDS011;2196;47.422;9.656;2023-05-29T14:09:35;5.05;;;4.65;;
4365;SDS011;2196;47.422;9.656;2023-05-29T14:12:03;5.63;;;5.13;;
4365;SDS011;2196;47.422;9.656;2023-05-29T14:14:32;5.13;;;4.10;;
4365;SDS011;2196;47.422;9.656;2023-05-29T14:16:59;4.63;;;4.20;;
4365;SDS011;2196;47.422;9.656;2023-05-29T14:19:27;4.63;;;3.90;;
4365;SDS011;2196;47.422;9.656;2023-05-29T14:21:54;5.00;;;4.50;;
4365;SDS011;2196;47.422;9.656;2023-05-29T14:24:23;5.20;;;4.67;;
4365;SDS011;2196;47.422;9.656;2023-05-29T14:26:50;4.70;;;4.30;;
4365;SDS011;2196;47.422;9.656;2023-05-29T14:29:17;4.03;;;3.83;;
4365;SDS011;2196;47.422;9.656;2023-05-29T14:31:43;4.55;;;4.18;;
4365;SDS011;2196;47.422;9.656;2023-05-29T14:34:11;4.30;;;4.00;;
4365;SDS011;2196;47.422;9.656;2023-05-29T14:36:38;4.70;;;4.30;;
4365;SDS011;2196;47.422;9.656;2023-05-29T14:39:06;4.85;;;3.83;;
4365;SDS011;2196;47.422;9.656;2023-05-29T14:41:35;5.03;;;4.57;;
4365;SDS011;2196;47.422;9.656;2023-05-29T14:44:02;9.43;;;4.30;;
4365;SDS011;2196;47.422;9.656;2023-05-29T14:46:29;4.60;;;4.30;;
4365;SDS011;2196;47.422;9.656;2023-05-29T14:48:57;4.03;;;3.70;;
4365;SDS011;2196;47.422;9.656;2023-05-29T14:51:24;4.55;;;4.15;;
4365;SDS011;2196;47.422;9.656;2023-05-29T14:53:51;5.57;;;4.90;;
4365;SDS011;2196;47.422;9.656;2023-05-29T14:56:18;5.10;;;4.70;;
4365;SDS011;2196;47.422;9.656;2023-05-29T14:58:46;4.83;;;4.10;;
4365;SDS011;2196;47.422;9.656;2023-05-29T15:01:14;3.63;;;3.50;;
4365;SDS011;2196;47.422;9.656;2023-05-29T15:03:45;5.97;;;3.77;;
4365;SDS011;2196;47.422;9.656;2023-05-29T15:06:12;4.23;;;3.93;;
4365;SDS011;2196;47.422;9.656;2023-05-29T15:08:40;3.85;;;3.58;;
4365;SDS011;2196;47.422;9.656;2023-05-29T15:11:08;4.33;;;4.03;;
4365;SDS011;2196;47.422;9.656;2023-05-29T15:13:37;4.87;;;4.37;;
4365;SDS011;2196;47.422;9.656;2023-05-29T15:16:09;6.13;;;4.83;;
4365;SDS011;2196;47.422;9.656;2023-05-29T15:18:36;6.50;;;3.80;;
4365;SDS011;2196;47.422;9.656;2023-05-29T15:21:03;8.80;;;4.50;;
4365;SDS011;2196;47.422;9.656;2023-05-29T15:23:30;4.87;;;4.10;;
4365;SDS011;2196;47.422;9.656;2023-05-29T15:25:59;4.40;;;4.00;;
4365;SDS011;2196;47.422;9.656;2023-05-29T15:28:28;4.73;;;4.33;;
4365;SDS011;2196;47.422;9.656;2023-05-29T15:30:58;5.18;;;4.68;;